Rives, Missouri
Current Conditions -  °F | °C
As of 4:53 AM on Tuesday 21 Oct 2014 (Local Time) from KHKA Reporting Station
Haze Haze  
Wind Chill: 47°   Ceiling: Unl
Heat Index: 49°   Visibility: 4mi
Dew Point: 48°   Wind: 6mph
Humidity: 97%   Direction: 340°NNW
Pressure: 30.05"   Gusts: NA
Location:  36.09°N, 90.01°W
Report Text: KHKA 210953Z AUTO 34005KT 4SM BR CLR 09/09 A3005 RMK AO2 SLP175 T00940089
Loading
Personal Weather Stations






























Interactive Weather Map
Tropical Storm Tracking
New forecast layout! Learn more

10-Day Weather Forecast

Advertisements
Track Severe Weather on mobile